RJTU(METAR)
03/23 14:00
METAR RJTU 230500Z VRB03KT 9999 FEW030 SCT060 BKN180 13/M05 Q1014
RMK 1CU030 3SC060 7CI180 A2997=
戻る
トップページへ戻る
IMOC Co,.Ltd.